Time;durP1;ratioP1;P1;durP2;ratioP2;P2;SDS_P1;SDS_P2;PMS_P1;PMS_P2;Temp;Humidity;BMP_temperature;BMP_pressure;BME280_temperature;BME280_humidity;BME280_pressure;Samples;Min_cycle;Max_cycle;Signal;HPM_P1;HPM_P2
2021/10/29 00:02:23;;;;;;;18.67;13.90;;;;;;;7.15;84.77;101418.56;5011658;28;20558;-73
2021/10/29 00:04:49;;;;;;;16.20;12.97;;;;;;;7.08;84.37;101419.09;5011626;28;20227;-74
2021/10/29 00:07:14;;;;;;;16.67;13.67;;;;;;;7.05;84.99;101422.38;5012189;28;20195;-74
2021/10/29 00:09:40;;;;;;;18.83;14.03;;;;;;;6.98;84.72;101407.69;5012512;28;20183;-73
2021/10/29 00:12:06;;;;;;;18.23;13.83;;;;;;;6.99;83.54;101421.25;5010307;28;20191;-73
2021/10/29 00:14:32;;;;;;;14.63;12.40;;;;;;;6.94;83.91;101423.63;5011953;28;20703;-73
2021/10/29 00:16:59;;;;;;;16.17;12.47;;;;;;;6.92;82.68;101420.16;5010689;28;20575;-73
2021/10/29 00:19:24;;;;;;;16.33;12.93;;;;;;;6.86;83.46;101419.88;5011811;28;20191;-73
2021/10/29 00:21:50;;;;;;;14.77;12.33;;;;;;;6.80;84.23;101421.28;5011418;28;20376;-73
2021/10/29 00:24:15;;;;;;;18.53;13.30;;;;;;;6.82;83.45;101419.69;5010466;28;20227;-73
2021/10/29 00:26:41;;;;;;;14.23;12.40;;;;;;;6.73;83.64;101417.59;5010894;28;20274;-73
2021/10/29 00:29:06;;;;;;;19.67;15.30;;;;;;;6.83;84.92;101423.97;5011860;28;20263;-73
2021/10/29 00:31:32;;;;;;;20.33;13.73;;;;;;;6.80;84.00;101418.72;5011148;28;20195;-73
2021/10/29 00:33:57;;;;;;;16.63;12.83;;;;;;;6.80;84.05;101424.72;5011109;28;20211;-73
2021/10/29 00:36:22;;;;;;;14.90;12.33;;;;;;;6.74;84.31;101414.28;5010339;28;20234;-73
2021/10/29 00:38:48;;;;;;;15.73;12.33;;;;;;;6.66;85.00;101425.78;5011614;28;20191;-74
2021/10/29 00:41:13;;;;;;;16.90;12.77;;;;;;;6.73;85.21;101416.75;5010736;28;20584;-73
2021/10/29 00:43:38;;;;;;;18.47;13.87;;;;;;;6.65;84.83;101424.03;5004822;28;20758;-73
2021/10/29 00:46:04;;;;;;;18.13;12.87;;;;;;;6.66;84.76;101412.16;5009637;28;20571;-73
2021/10/29 00:48:29;;;;;;;16.77;13.37;;;;;;;6.68;84.49;101419.06;5011548;28;20214;-73
2021/10/29 00:50:55;;;;;;;18.03;12.70;;;;;;;6.61;84.19;101428.91;5010997;28;20242;-73
2021/10/29 00:53:20;;;;;;;17.17;12.83;;;;;;;6.59;84.23;101428.00;5010675;28;20274;-73
2021/10/29 00:55:46;;;;;;;16.07;12.50;;;;;;;6.50;83.67;101427.56;5011215;28;20231;-73
2021/10/29 00:58:11;;;;;;;18.33;13.70;;;;;;;6.57;84.87;101429.56;5011599;28;20613;-73
2021/10/29 01:00:37;;;;;;;14.83;12.60;;;;;;;6.50;84.84;101427.56;5009989;28;20705;-73
2021/10/29 01:03:04;;;;;;;17.13;13.63;;;;;;;6.51;85.06;101440.38;5011322;28;20529;-73
2021/10/29 01:05:29;;;;;;;17.90;13.90;;;;;;;6.54;85.21;101432.84;5010333;28;20279;-72
2021/10/29 01:07:59;;;;;;;16.17;13.40;;;;;;;6.53;84.91;101432.78;5011089;28;20298;-73
2021/10/29 01:10:29;;;;;;;16.37;13.03;;;;;;;6.46;85.06;101436.75;5011138;28;20249;-73
2021/10/29 01:12:54;;;;;;;18.60;13.77;;;;;;;6.46;84.85;101446.03;5009778;28;20253;-74
2021/10/29 01:15:20;;;;;;;17.97;13.90;;;;;;;6.46;84.16;101440.97;5010054;28;20203;-73
2021/10/29 01:17:45;;;;;;;21.47;15.60;;;;;;;6.43;84.99;101438.25;5010084;28;20199;-73
2021/10/29 01:20:10;;;;;;;17.20;14.17;;;;;;;6.45;85.59;101429.91;5009570;28;20207;-74
2021/10/29 01:22:36;;;;;;;21.40;15.37;;;;;;;6.41;86.02;101422.94;5010239;28;20191;-73
2021/10/29 01:25:02;;;;;;;20.43;14.97;;;;;;;6.48;86.16;101421.53;5009722;28;20269;-74
2021/10/29 01:27:27;;;;;;;18.47;13.93;;;;;;;6.51;86.21;101421.69;5008706;28;20187;-73
2021/10/29 01:29:52;;;;;;;18.17;14.23;;;;;;;6.49;86.00;101421.59;5010014;28;20690;-73
2021/10/29 01:32:20;;;;;;;19.30;14.50;;;;;;;6.47;85.99;101427.44;5009474;28;20187;-73
2021/10/29 01:34:45;;;;;;;17.60;14.30;;;;;;;6.47;86.14;101415.59;5010538;28;20739;-73
2021/10/29 01:37:13;;;;;;;19.17;14.10;;;;;;;6.44;86.01;101415.44;5008724;28;20191;-73
2021/10/29 01:39:39;;;;;;;18.93;14.23;;;;;;;6.43;86.06;101428.09;5003202;28;20279;-74
2021/10/29 01:42:05;;;;;;;19.53;14.47;;;;;;;6.37;85.43;101433.78;5008478;28;20274;-73
2021/10/29 01:44:31;;;;;;;20.13;15.63;;;;;;;6.44;87.19;101424.78;5007721;28;20675;-73
2021/10/29 01:46:56;;;;;;;18.53;14.57;;;;;;;6.37;86.32;101426.16;5010466;28;20202;-73
2021/10/29 01:49:22;;;;;;;20.70;15.03;;;;;;;6.36;86.64;101426.94;5010518;28;20199;-73
2021/10/29 01:51:47;;;;;;;19.17;15.20;;;;;;;6.36;85.93;101424.41;5008643;28;20182;-73
2021/10/29 01:54:12;;;;;;;20.07;15.77;;;;;;;6.37;86.35;101431.25;5009348;28;20282;-73
2021/10/29 01:56:39;;;;;;;20.20;15.70;;;;;;;6.33;86.42;101431.91;5009180;28;20206;-74
2021/10/29 01:59:04;;;;;;;21.47;15.93;;;;;;;6.30;86.21;101426.66;5008785;28;20239;-73
2021/10/29 02:01:30;;;;;;;18.03;13.77;;;;;;;6.24;85.90;101425.53;5007945;28;20229;-73
2021/10/29 02:03:55;;;;;;;20.10;15.20;;;;;;;6.28;86.11;101430.81;5008468;28;20247;-73
2021/10/29 02:06:21;;;;;;;20.93;15.77;;;;;;;6.27;86.44;101421.44;5009225;28;20282;-73
2021/10/29 02:08:47;;;;;;;19.50;15.17;;;;;;;6.26;86.19;101423.94;5010059;28;20249;-73
2021/10/29 02:11:13;;;;;;;18.40;14.27;;;;;;;6.23;86.23;101422.13;5007147;28;20183;-73
2021/10/29 02:13:38;;;;;;;19.73;15.03;;;;;;;6.26;86.59;101411.22;5009936;28;20194;-73
2021/10/29 02:16:04;;;;;;;26.50;18.87;;;;;;;6.40;87.99;101417.81;5009105;28;20225;-73
2021/10/29 02:18:30;;;;;;;24.57;18.27;;;;;;;6.38;87.39;101409.22;5009984;28;20217;-73
2021/10/29 02:20:56;;;;;;;22.43;16.73;;;;;;;6.31;87.77;101410.59;5009447;28;20277;-73
2021/10/29 02:23:21;;;;;;;21.67;16.27;;;;;;;6.29;86.69;101396.97;5009199;28;20219;-73
2021/10/29 02:25:47;;;;;;;21.43;15.57;;;;;;;6.21;87.17;101390.66;5008181;28;20278;-74
2021/10/29 02:28:16;;;;;;;27.37;17.77;;;;;;;6.28;87.27;101387.59;4992183;28;20191;-73
2021/10/29 02:30:42;;;;;;;21.23;16.93;;;;;;;6.28;88.20;101379.97;4991859;28;20190;-73
2021/10/29 02:33:08;;;;;;;27.70;16.90;;;;;;;6.29;87.13;101374.09;5009766;28;20724;-73
2021/10/29 02:35:33;;;;;;;26.10;17.43;;;;;;;6.27;87.71;101373.13;5008673;28;20210;-74
2021/10/29 02:37:59;;;;;;;23.57;17.17;;;;;;;6.27;87.63;101377.34;5009750;28;20274;-73
2021/10/29 02:40:24;;;;;;;22.03;16.73;;;;;;;6.20;86.84;101365.16;5019649;28;20567;-74
2021/10/29 02:42:49;;;;;;;24.53;16.60;;;;;;;6.16;86.55;101364.16;5009127;28;20234;-73
2021/10/29 02:45:14;;;;;;;21.77;15.23;;;;;;;6.12;86.23;101361.44;5009407;28;20646;-73
2021/10/29 02:47:46;;;;;;;21.33;15.80;;;;;;;6.11;86.33;101350.38;5009987;28;20652;-73
2021/10/29 02:50:11;;;;;;;20.57;15.23;;;;;;;6.02;85.98;101354.16;5013757;28;20286;-73
2021/10/29 02:52:36;;;;;;;20.57;15.00;;;;;;;6.01;85.69;101358.38;5014610;28;20197;-73
2021/10/29 02:55:02;;;;;;;20.90;15.60;;;;;;;5.92;86.18;101350.34;5010463;28;20226;-73
2021/10/29 02:57:27;;;;;;;21.73;15.33;;;;;;;5.94;85.62;101352.97;5014280;28;20186;-74
2021/10/29 02:59:52;;;;;;;20.03;15.23;;;;;;;5.89;85.24;101349.34;5015582;28;20210;-73
2021/10/29 03:02:18;;;;;;;20.10;14.73;;;;;;;5.85;85.02;101343.22;5014443;28;20204;-73
2021/10/29 03:04:43;;;;;;;20.03;14.83;;;;;;;5.79;84.83;101348.00;5014180;28;20226;-73
2021/10/29 03:07:08;;;;;;;23.23;15.80;;;;;;;5.83;84.53;101344.84;5015669;28;20206;-74
2021/10/29 03:09:34;;;;;;;19.87;14.80;;;;;;;5.73;84.65;101355.34;5015402;28;20197;-74
2021/10/29 03:12:00;;;;;;;20.30;14.93;;;;;;;5.70;84.90;101355.19;5014398;28;20245;-73
2021/10/29 03:14:25;;;;;;;21.57;15.37;;;;;;;5.74;85.59;101354.53;5015895;28;20211;-73
2021/10/29 03:16:50;;;;;;;20.10;16.23;;;;;;;5.73;85.14;101344.31;5013900;28;20214;-73
2021/10/29 03:19:15;;;;;;;21.47;16.07;;;;;;;5.69;85.16;101343.31;5013615;28;20198;-74
2021/10/29 03:21:41;;;;;;;26.70;17.13;;;;;;;5.65;85.65;101345.59;5015043;28;20195;-74
2021/10/29 03:24:06;;;;;;;24.77;17.27;;;;;;;5.63;85.92;101348.09;5004132;28;20239;-74
2021/10/29 03:26:31;;;;;;;26.50;18.43;;;;;;;5.66;85.87;101347.38;5015493;28;20811;-73
2021/10/29 03:28:57;;;;;;;23.83;17.63;;;;;;;5.60;85.82;101349.59;5014756;28;20207;-73
2021/10/29 03:31:22;;;;;;;24.93;18.00;;;;;;;5.63;86.28;101348.09;5013921;28;20620;-73
2021/10/29 03:33:47;;;;;;;25.60;18.00;;;;;;;5.54;86.08;101356.94;5014203;28;20254;-73
2021/10/29 03:36:13;;;;;;;22.07;16.73;;;;;;;5.55;85.33;101358.69;5013301;28;20203;-73
2021/10/29 03:38:47;;;;;;;24.37;16.80;;;;;;;5.53;85.50;101355.22;5008215;28;20190;-73
2021/10/29 03:41:17;;;;;;;24.73;18.33;;;;;;;5.50;85.60;101352.53;5013670;28;20195;-73
2021/10/29 03:44:03;;;;;;;24.03;17.83;;;;;;;5.47;85.60;101349.81;5009541;28;20219;-73
2021/10/29 03:46:30;;;;;;;25.87;18.23;;;;;;;5.53;85.42;101348.44;5014009;28;20201;-74
2021/10/29 03:51:39;;;;;;;26.57;17.83;;;;;;;5.40;85.91;101353.75;5014730;28;20217;-73
2021/10/29 03:59:30;;;;;;;27.80;19.87;;;;;;;5.40;86.44;101351.22;5012684;28;20274;-73
2021/10/29 04:01:56;;;;;;;30.03;21.70;;;;;;;5.48;87.52;101354.97;5009480;28;20188;-73
2021/10/29 04:04:21;;;;;;;30.30;21.47;;;;;;;5.48;87.76;101354.97;5012044;28;20215;-73
2021/10/29 04:06:47;;;;;;;31.63;21.07;;;;;;;5.48;87.33;101357.50;5010475;28;20679;-73
2021/10/29 04:09:14;;;;;;;33.30;22.73;;;;;;;5.52;87.63;101356.88;5010435;28;20873;-73
2021/10/29 04:11:40;;;;;;;30.50;20.63;;;;;;;5.47;87.66;101350.69;5005595;28;20278;-73
2021/10/29 04:14:07;;;;;;;37.93;23.03;;;;;;;5.58;88.48;101348.69;5007266;28;20231;-73
2021/10/29 04:16:37;;;;;;;35.33;23.43;;;;;;;5.53;88.44;101342.50;5010845;28;20198;-73
2021/10/29 04:19:06;;;;;;;33.97;22.83;;;;;;;5.51;88.89;101349.16;5012296;28;20191;-73
2021/10/29 04:21:32;;;;;;;31.97;22.63;;;;;;;5.53;88.52;101343.38;5012166;28;20191;-73
2021/10/29 04:23:57;;;;;;;35.03;23.17;;;;;;;5.57;88.87;101352.03;5012090;28;20726;-73
2021/10/29 04:26:23;;;;;;;34.10;22.97;;;;;;;5.56;89.11;101352.78;5011844;28;20187;-73
2021/10/29 04:28:54;;;;;;;38.57;24.00;;;;;;;5.57;88.62;101346.94;5010917;28;20180;-73
2021/10/29 04:31:22;;;;;;;40.70;22.70;;;;;;;5.55;88.57;101349.41;5012132;28;20210;-73
2021/10/29 04:33:49;;;;;;;32.83;21.60;;;;;;;5.49;88.59;101346.59;5012042;28;20216;-73
2021/10/29 04:36:14;;;;;;;34.50;22.17;;;;;;;5.49;88.04;101335.53;5012010;28;20282;-73
2021/10/29 04:38:40;;;;;;;38.07;24.60;;;;;;;5.53;88.43;101345.06;5011986;28;20273;-73
2021/10/29 04:41:05;;;;;;;39.37;25.03;;;;;;;5.52;88.21;101348.41;5012091;28;20263;-73
2021/10/29 04:43:30;;;;;;;40.87;26.10;;;;;;;5.63;89.17;101347.22;5010607;28;20736;-73
2021/10/29 04:45:56;;;;;;;33.00;22.87;;;;;;;5.57;89.01;101345.25;5009707;28;20250;-73
2021/10/29 04:48:21;;;;;;;34.10;22.17;;;;;;;5.47;88.18;101335.47;5010421;28;20195;-73
2021/10/29 04:50:46;;;;;;;33.97;22.10;;;;;;;5.45;88.51;101341.28;5011550;28;20202;-73
2021/10/29 04:53:12;;;;;;;38.47;23.73;;;;;;;5.51;88.24;101350.06;5011396;28;20206;-73
2021/10/29 04:55:38;;;;;;;36.93;23.03;;;;;;;5.53;88.41;101340.81;5011122;28;20222;-75
2021/10/29 04:58:05;;;;;;;36.30;24.70;;;;;;;5.48;88.30;101334.66;5011531;28;20668;-73
2021/10/29 05:00:31;;;;;;;36.43;23.83;;;;;;;5.53;88.01;101333.22;5010123;28;20206;-73
2021/10/29 05:02:58;;;;;;;32.93;21.80;;;;;;;5.52;88.15;101328.94;5011367;28;20199;-73
2021/10/29 05:05:23;;;;;;;32.63;22.77;;;;;;;5.49;87.86;101340.63;5009715;28;20219;-73
2021/10/29 05:07:49;;;;;;;34.40;21.53;;;;;;;5.44;87.76;101334.47;5011040;28;20179;-73
2021/10/29 05:10:14;;;;;;;32.47;22.73;;;;;;;5.39;87.36;101326.59;5009799;28;20199;-73
2021/10/29 05:12:39;;;;;;;40.60;25.30;;;;;;;5.54;88.39;101329.00;5011179;28;20262;-73
2021/10/29 05:15:06;;;;;;;34.63;24.20;;;;;;;5.50;88.24;101332.19;5011181;28;20206;-73
2021/10/29 05:17:31;;;;;;;38.50;24.23;;;;;;;5.50;87.86;101335.63;5010857;28;20183;-73
2021/10/29 05:19:56;;;;;;;32.63;22.10;;;;;;;5.43;87.92;101338.66;5011046;28;20202;-74
2021/10/29 05:22:21;;;;;;;34.23;22.73;;;;;;;5.43;87.83;101345.41;5010808;28;20187;-73
2021/10/29 05:24:47;;;;;;;34.27;22.17;;;;;;;5.43;87.74;101337.81;5010913;28;20306;-73
2021/10/29 05:27:12;;;;;;;35.57;23.20;;;;;;;5.40;87.42;101340.19;5010761;28;20676;-73
2021/10/29 05:29:38;;;;;;;34.50;22.67;;;;;;;5.32;87.78;101338.94;5010996;28;20229;-73
2021/10/29 05:32:03;;;;;;;34.87;21.97;;;;;;;5.34;87.35;101342.44;5010822;28;20222;-73
2021/10/29 05:34:29;;;;;;;30.27;20.60;;;;;;;5.33;87.01;101333.94;5010765;28;20301;-73
2021/10/29 05:36:55;;;;;;;31.70;20.43;;;;;;;5.29;86.34;101333.75;5010462;28;20190;-73
2021/10/29 05:39:21;;;;;;;33.70;20.97;;;;;;;5.23;86.70;101329.22;5010556;28;20183;-73
2021/10/29 05:41:48;;;;;;;28.93;20.83;;;;;;;5.18;86.15;101330.69;5009266;28;20191;-73
2021/10/29 05:44:22;;;;;;;33.97;21.90;;;;;;;5.23;86.47;101333.44;5008896;28;20224;-73
2021/10/29 05:46:48;;;;;;;33.90;21.03;;;;;;;5.26;86.40;101336.13;5010425;28;20210;-73
2021/10/29 05:49:15;;;;;;;33.83;21.83;;;;;;;5.24;86.80;101330.97;5010416;28;20192;-73
2021/10/29 05:51:44;;;;;;;34.37;22.43;;;;;;;5.24;87.17;101336.03;5025685;28;20194;-73
2021/10/29 05:54:36;;;;;;;34.27;21.80;;;;;;;5.15;87.53;101337.28;5010600;28;20201;-73
2021/10/29 05:57:01;;;;;;;34.47;22.63;;;;;;;5.17;87.59;101335.69;5010167;28;20199;-73
2021/10/29 05:59:27;;;;;;;36.20;23.33;;;;;;;5.10;87.64;101331.09;5009161;28;20188;-73
2021/10/29 06:01:52;;;;;;;34.67;23.30;;;;;;;5.09;87.46;101324.28;5010548;28;20194;-73
2021/10/29 06:04:18;;;;;;;34.77;23.77;;;;;;;5.11;87.75;101322.69;5008884;28;20238;-73
2021/10/29 06:06:43;;;;;;;44.87;26.17;;;;;;;5.17;87.98;101318.78;5010121;28;20179;-73
2021/10/29 06:09:09;;;;;;;53.03;31.33;;;;;;;5.32;89.36;101321.16;5008814;28;20203;-73
2021/10/29 06:11:34;;;;;;;46.83;28.30;;;;;;;5.29;89.40;101319.34;5010265;28;20685;-73
2021/10/29 06:13:59;;;;;;;43.20;24.60;;;;;;;5.27;89.00;101323.50;5009920;28;20222;-73
2021/10/29 06:16:25;;;;;;;37.83;23.53;;;;;;;5.23;88.55;101321.63;5009962;28;20609;-73
2021/10/29 06:18:52;;;;;;;38.43;23.43;;;;;;;5.25;88.14;101327.63;5009957;28;20195;-73
2021/10/29 06:21:22;;;;;;;39.90;24.57;;;;;;;5.28;88.57;101327.78;5009724;28;20190;-73
2021/10/29 06:24:00;;;;;;;41.67;25.70;;;;;;;5.33;89.38;101327.97;5009646;28;20223;-73
2021/10/29 06:26:27;;;;;;;36.63;24.00;;;;;;;5.32;88.96;101322.06;5009713;28;20187;-73
2021/10/29 06:28:54;;;;;;;40.40;24.33;;;;;;;5.32;88.92;101324.59;5009845;28;20291;-73
2021/10/29 06:31:20;;;;;;;37.93;22.97;;;;;;;5.35;89.20;101324.72;5009338;28;20707;-73
2021/10/29 06:33:47;;;;;;;37.83;23.23;;;;;;;5.43;88.71;101331.03;5010024;28;20204;-73
2021/10/29 06:36:12;;;;;;;40.27;24.33;;;;;;;5.44;89.10;101330.22;5006529;28;20261;-73
2021/10/29 06:38:39;;;;;;;42.57;25.20;;;;;;;5.47;89.39;101330.38;5009010;28;20270;-73
2021/10/29 06:41:06;;;;;;;41.10;24.27;;;;;;;5.59;89.32;101330.97;5009317;28;20237;-73
2021/10/29 06:43:37;;;;;;;44.53;26.27;;;;;;;5.63;90.15;101332.88;5009277;28;20371;-74
2021/10/29 06:59:35;;;;;;;43.20;25.70;;;;;;;5.88;89.55;101333.22;4989744;28;20187;-73
2021/10/29 07:02:29;;;;;;;40.80;25.80;;;;;;;5.94;89.67;101325.00;4988388;28;20724;-73
2021/10/29 07:42:38;;;;;;;29.23;20.27;;;;;;;7.76;84.23;101324.28;5012203;28;20207;-74
2021/10/29 07:45:05;;;;;;;33.70;20.47;;;;;;;7.92;84.45;101326.59;4994596;28;20718;-74
2021/10/29 07:47:30;;;;;;;31.57;21.13;;;;;;;8.02;85.06;101323.56;5012081;28;20672;-74
2021/10/29 07:49:56;;;;;;;31.53;20.00;;;;;;;8.12;83.64;101322.22;5010796;28;20183;-74
2021/10/29 07:52:21;;;;;;;31.80;20.80;;;;;;;8.24;84.20;101330.38;5012141;28;20660;-74
2021/10/29 07:54:46;;;;;;;27.53;19.20;;;;;;;8.33;83.63;101315.38;5011792;28;20203;-74
2021/10/29 07:57:17;;;;;;;30.97;18.70;;;;;;;8.45;82.52;101319.25;5011674;28;20193;-73
2021/10/29 07:59:44;;;;;;;27.90;18.33;;;;;;;8.53;82.57;101314.41;5010641;28;20677;-74
2021/10/29 08:02:10;;;;;;;27.10;18.30;;;;;;;8.68;82.13;101308.16;5010844;28;20199;-73
2021/10/29 08:04:36;;;;;;;28.50;19.13;;;;;;;8.77;82.39;101305.03;5011701;28;20215;-74
2021/10/29 08:07:01;;;;;;;30.10;19.83;;;;;;;8.87;81.37;101307.94;5011541;28;20731;-75
2021/10/29 08:09:27;;;;;;;27.67;19.40;;;;;;;9.05;80.89;101306.00;5011942;28;20171;-73
2021/10/29 08:11:54;;;;;;;31.97;19.40;;;;;;;9.23;80.53;101298.06;5010386;28;20656;-75
2021/10/29 08:14:20;;;;;;;28.17;18.43;;;;;;;9.45;80.56;101305.59;5009748;28;20269;-75
2021/10/29 08:16:46;;;;;;;30.63;19.00;;;;;;;9.57;79.56;101311.06;5011301;28;20210;-74
2021/10/29 08:19:12;;;;;;;28.33;17.97;;;;;;;9.62;78.64;101307.81;5011638;28;20660;-74
2021/10/29 08:21:37;;;;;;;29.40;18.87;;;;;;;9.88;78.88;101308.59;5010309;28;20668;-75
2021/10/29 08:24:03;;;;;;;26.27;17.77;;;;;;;10.08;78.38;101300.72;5002066;28;20242;-75
2021/10/29 08:26:28;;;;;;;27.30;18.30;;;;;;;10.08;77.76;101299.84;5011791;28;20190;-72
2021/10/29 08:28:54;;;;;;;26.57;18.23;;;;;;;10.35;77.31;101300.63;5012132;28;20671;-72
2021/10/29 08:31:20;;;;;;;23.60;16.60;;;;;;;10.67;77.14;101292.97;5011234;28;20614;-73
2021/10/29 08:33:45;;;;;;;23.87;17.43;;;;;;;10.69;76.00;101291.31;5010031;28;20207;-74
2021/10/29 08:36:12;;;;;;;25.83;17.27;;;;;;;10.96;75.27;101291.16;5011184;28;20179;-74
2021/10/29 08:38:38;;;;;;;26.33;17.63;;;;;;;11.21;74.33;101284.09;5010090;28;20705;-73
2021/10/29 08:41:03;;;;;;;23.03;16.43;;;;;;;11.55;72.66;101286.59;5011298;28;20241;-72
2021/10/29 08:43:28;;;;;;;24.77;17.03;;;;;;;11.86;71.59;101281.34;5011475;28;20617;-74
2021/10/29 08:45:54;;;;;;;23.63;15.80;;;;;;;12.83;70.08;101272.09;5010648;28;20191;-76
2021/10/29 08:48:20;;;;;;;22.53;15.87;;;;;;;16.52;56.46;101258.59;5011155;28;20249;-74
2021/10/29 08:50:46;;;;;;;21.00;15.00;;;;;;;19.51;47.48;101246.19;5010849;28;20227;-74
2021/10/29 08:53:11;;;;;;;18.03;13.97;;;;;;;19.84;45.78;101252.72;5011332;28;20712;-73
2021/10/29 08:55:39;;;;;;;19.33;14.20;;;;;;;20.50;44.00;101247.53;5011265;28;20294;-74
2021/10/29 08:58:05;;;;;;;17.83;13.83;;;;;;;21.29;42.53;101248.00;5003021;28;20206;-73
2021/10/29 09:00:39;;;;;;;17.67;14.83;;;;;;;20.64;43.30;101256.00;5000392;28;20190;-74
2021/10/29 09:03:11;;;;;;;18.40;14.87;;;;;;;20.93;42.49;101258.19;5001601;28;20203;-74
2021/10/29 09:08:36;;;;;;;18.20;15.07;;;;;;;21.83;41.06;101249.59;5005412;28;20287;-73
2021/10/29 09:33:05;;;;;;;16.48;14.65;;;;;;;23.93;36.55;101212.22;5010191;28;20183;-74
2021/10/29 09:35:35;;;;;;;17.05;15.30;;;;;;;23.54;37.01;101220.31;5009154;28;20218;-73
2021/10/29 09:38:14;;;;;;;18.02;14.02;;;;;;;26.18;33.91;101206.28;5010285;28;20203;-74
2021/10/29 09:41:11;;;;;;;16.33;14.63;;;;;;;24.71;35.28;101212.41;5007775;28;20219;-74
2021/10/29 09:43:58;;;;;;;16.98;15.15;;;;;;;26.53;32.41;101190.81;5008453;28;20261;-74
2021/10/29 09:46:29;;;;;;;16.58;14.90;;;;;;;26.82;32.99;101187.91;5009843;28;20171;-75
2021/10/29 09:49:03;;;;;;;15.82;14.18;;;;;;;27.17;31.98;101179.34;5009706;28;20199;-74
2021/10/29 09:51:46;;;;;;;16.42;14.73;;;;;;;26.62;32.85;101179.13;5008789;28;20242;-74
2021/10/29 09:54:15;;;;;;;17.02;15.25;;;;;;;26.80;32.83;101176.59;5009011;28;20578;-74
2021/10/29 09:56:55;;;;;;;19.02;15.05;;;;;;;27.74;31.93;101171.56;5007753;28;20203;-74
2021/10/29 09:59:21;;;;;;;15.82;14.07;;;;;;;26.23;32.91;101181.56;5010323;28;20215;-74
2021/10/29 10:01:47;;;;;;;16.27;14.48;;;;;;;26.59;32.74;101181.88;5009960;28;20269;-74
2021/10/29 10:04:14;;;;;;;14.55;13.02;;;;;;;26.40;34.04;101178.25;5009971;28;20325;-74
2021/10/29 10:06:41;;;;;;;17.05;13.77;;;;;;;25.76;34.11;101179.00;5010008;28;20188;-74
2021/10/29 10:09:08;;;;;;;14.35;12.50;;;;;;;25.65;34.86;101182.00;5009094;28;20657;-74
2021/10/29 10:11:39;;;;;;;15.02;13.10;;;;;;;25.85;34.67;101173.41;5010399;28;20203;-74
2021/10/29 10:14:05;;;;;;;14.35;12.68;;;;;;;23.41;38.87;101180.56;5009975;28;20206;-73
2021/10/29 10:16:33;;;;;;;14.35;12.50;;;;;;;24.19;37.91;101174.78;5009699;28;20187;-74
2021/10/29 10:18:58;;;;;;;14.63;12.68;;;;;;;25.75;35.78;101178.16;5009957;28;20179;-74
2021/10/29 10:21:27;;;;;;;13.73;12.15;;;;;;;26.39;35.16;101164.25;5010265;28;20684;-75
2021/10/29 10:23:56;;;;;;;14.25;12.52;;;;;;;26.02;35.47;101160.53;5008803;28;20211;-74
2021/10/29 10:29:42;;;;;;;13.10;11.70;;;;;;;29.02;31.03;101138.94;4965294;28;20227;-74
2021/10/29 10:40:50;;;;;;;11.20;10.07;;;;;;;25.79;35.10;101142.16;5009761;28;20211;-74
2021/10/29 10:48:27;;;;;;;11.98;10.38;;;;;;;29.56;29.64;101122.84;5009731;28;20222;-75
2021/10/29 10:51:15;;;;;;;9.80;8.90;;;;;;;30.89;27.40;101114.25;5005842;28;20202;-75
2021/10/29 10:53:45;;;;;;;10.88;9.88;;;;;;;30.47;27.86;101114.13;5007631;28;20202;-75
2021/10/29 10:59:40;;;;;;;11.40;9.52;;;;;;;29.13;29.84;101121.63;4996025;28;20203;-73
2021/10/29 11:10:19;;;;;;;10.18;9.00;;;;;;;30.19;29.26;101098.13;5013205;28;20201;-74
2021/10/29 11:12:46;;;;;;;9.18;8.30;;;;;;;29.67;29.86;101108.13;5013523;28;20187;-69
2021/10/29 11:15:19;;;;;;;9.57;8.52;;;;;;;31.31;28.42;101105.53;4999512;28;20262;-75
2021/10/29 11:17:50;;;;;;;8.85;7.95;;;;;;;29.46;29.09;101098.69;5011027;28;20199;-74
2021/10/29 11:20:34;;;;;;;9.43;8.52;;;;;;;30.92;27.65;101092.91;5013502;28;20195;-75
2021/10/29 11:23:08;;;;;;;9.48;8.57;;;;;;;28.66;30.21;101098.56;5011670;28;20205;-75
2021/10/29 11:26:02;;;;;;;9.00;8.00;;;;;;;29.79;28.38;101090.75;5027314;28;20223;-75
2021/10/29 11:28:51;;;;;;;8.82;7.88;;;;;;;29.90;29.12;101081.28;5013221;28;20198;-76
2021/10/29 11:31:21;;;;;;;7.82;7.13;;;;;;;29.63;28.49;101081.94;5008018;28;20203;-76
2021/10/29 11:33:52;;;;;;;9.60;7.85;;;;;;;29.72;28.78;101084.94;5009287;28;20225;-75
2021/10/29 11:36:21;;;;;;;8.68;7.40;;;;;;;29.23;29.55;101077.09;5012192;28;20274;-76
2021/10/29 11:38:48;;;;;;;8.57;7.78;;;;;;;28.72;30.14;101069.25;5011577;28;20179;-75
2021/10/29 11:41:17;;;;;;;9.77;6.68;;;;;;;29.94;28.20;101066.09;5005760;28;20207;-76
2021/10/29 11:43:43;;;;;;;8.32;7.22;;;;;;;32.34;26.21;101052.88;5012329;28;20696;-76
2021/10/29 11:46:11;;;;;;;7.88;7.07;;;;;;;32.12;26.28;101063.16;5010547;28;20184;-77
2021/10/29 11:48:52;;;;;;;8.13;7.00;;;;;;;30.98;28.17;101055.47;5010147;28;20195;-76
2021/10/29 11:51:19;;;;;;;7.75;6.82;;;;;;;30.85;26.95;101051.88;5011102;28;20250;-76
2021/10/29 11:53:54;;;;;;;9.52;7.43;;;;;;;29.77;28.62;101055.63;5009394;28;20220;-76
2021/10/29 11:56:27;;;;;;;7.57;6.80;;;;;;;29.48;29.08;101056.38;5009837;28;20226;-76
2021/10/29 12:07:23;;;;;;;5.95;5.38;;;;;;;29.61;28.82;101045.06;5006236;28;20629;-76
2021/10/29 12:09:50;;;;;;;6.63;5.97;;;;;;;28.53;30.54;101052.66;5008771;28;20199;-74
2021/10/29 12:12:22;;;;;;;7.28;5.57;;;;;;;29.41;30.21;101044.41;5010981;28;20203;-75
2021/10/29 12:14:50;;;;;;;6.68;5.53;;;;;;;26.50;32.75;101064.84;5011733;28;20207;-74
2021/10/29 12:17:23;;;;;;;5.80;5.07;;;;;;;25.55;35.26;101065.19;5023727;28;20198;-75
2021/10/29 12:19:53;;;;;;;7.00;5.13;;;;;;;25.30;36.12;101064.44;5018568;28;20219;-75
2021/10/29 12:22:30;;;;;;;8.90;5.25;;;;;;;24.21;37.03;101069.13;5012425;28;20226;-75
2021/10/29 12:25:03;;;;;;;6.18;5.30;;;;;;;24.84;36.70;101059.13;5010871;28;20576;-75
2021/10/29 12:27:36;;;;;;;7.30;5.78;;;;;;;24.93;36.43;101063.16;5007233;28;20201;-75
2021/10/29 12:30:04;;;;;;;8.10;5.40;;;;;;;25.69;35.66;101060.28;5012069;28;20191;-75
2021/10/29 12:53:12;;;;;;;6.67;6.07;;;;;;;20.91;46.01;101062.06;5011662;28;20799;-74
2021/10/29 13:01:28;;;;;;;6.87;5.30;;;;;;;22.17;43.27;101047.13;5011752;28;20181;-75
2021/10/29 13:04:07;;;;;;;7.83;5.23;;;;;;;26.34;35.39;101037.47;4992139;28;20270;-75
2021/10/29 13:06:43;;;;;;;5.70;5.03;;;;;;;24.11;38.83;101044.16;5000479;28;20199;-74
2021/10/29 13:09:23;;;;;;;5.30;4.80;;;;;;;23.24;40.35;101038.19;5011479;28;20195;-74
2021/10/29 13:11:53;;;;;;;6.07;5.10;;;;;;;23.62;39.65;101035.25;5009912;28;21570;-75
2021/10/29 13:14:26;;;;;;;6.60;4.70;;;;;;;24.02;38.82;101028.75;5011210;28;20285;-75
2021/10/29 13:16:53;;;;;;;6.70;4.82;;;;;;;24.85;37.36;101018.88;5011068;28;20553;-75
2021/10/29 13:36:05;;;;;;;5.18;4.13;;;;;;;24.94;37.39;101000.19;5010811;28;20235;-75
2021/10/29 13:52:13;;;;;;;7.47;4.20;;;;;;;21.66;43.72;100998.72;5009156;28;20221;-74
2021/10/29 13:54:52;;;;;;;6.70;3.97;;;;;;;21.42;44.85;100990.66;5003904;28;20707;-75
2021/10/29 13:57:43;;;;;;;9.13;4.80;;;;;;;20.84;46.31;100995.31;5009316;28;20195;-75
2021/10/29 14:24:27;;;;;;;5.87;3.30;;;;;;;25.14;37.52;100958.34;5010336;28;20667;-75
2021/10/29 14:32:51;;;;;;;4.35;2.70;;;;;;;26.29;35.59;100934.38;5009958;28;20199;-75
2021/10/29 14:35:21;;;;;;;4.47;2.63;;;;;;;24.95;37.72;100939.00;5009912;28;20207;-75
2021/10/29 14:38:02;;;;;;;4.83;2.80;;;;;;;23.58;40.29;100942.94;5009844;28;20199;-75
2021/10/29 14:40:52;;;;;;;5.30;3.00;;;;;;;21.88;43.89;100944.38;5008559;28;20241;-76
2021/10/29 14:48:28;;;;;;;3.57;2.33;;;;;;;19.66;49.76;100951.50;5009799;28;20206;-75
2021/10/29 15:00:04;;;;;;;6.07;2.90;;;;;;;19.21;51.43;100950.38;5009640;28;20871;-75
2021/10/29 15:05:17;;;;;;;6.80;3.70;;;;;;;18.03;55.30;100941.38;5009723;28;20366;-75
2021/10/29 15:07:23;;;;;;;8.83;4.60;;;;;;;17.65;55.88;100938.28;4984216;28;20801;-75